Time;durP1;ratioP1;P1;durP2;ratioP2;P2;SDS_P1;SDS_P2;PMS_P1;PMS_P2;Temp;Humidity;BMP_temperature;BMP_pressure;BME280_temperature;BME280_humidity;BME280_pressure;Samples;Min_cycle;Max_cycle;Signal;HPM_P1;HPM_P2
2021/03/20 00:01:35;;;;;;;4.50;2.83;;;-0.20;99.90;;;;;;5054457;28;20307;-54
2021/03/20 00:04:01;;;;;;;5.50;2.33;;;-0.10;99.90;;;;;;5054198;28;20197;-49
2021/03/20 00:06:31;;;;;;;6.13;2.47;;;0.10;99.90;;;;;;5054343;28;20232;-47
2021/03/20 00:08:59;;;;;;;5.10;2.65;;;0.10;99.90;;;;;;5054574;28;20626;-48
2021/03/20 00:11:26;;;;;;;5.93;3.08;;;0.20;99.90;;;;;;5054106;28;20220;-48
2021/03/20 00:13:55;;;;;;;4.38;2.80;;;-0.10;99.90;;;;;;5054488;28;20196;-48
2021/03/20 00:16:22;;;;;;;7.40;3.17;;;0.00;99.90;;;;;;5054178;28;20224;-48
2021/03/20 00:18:49;;;;;;;7.45;2.45;;;-0.10;99.90;;;;;;5054526;28;20235;-48
2021/03/20 00:21:15;;;;;;;8.82;2.95;;;0.20;99.90;;;;;;5055274;28;20192;-48
2021/03/20 00:23:41;;;;;;;4.45;2.42;;;0.00;99.90;;;;;;5055643;28;20279;-48
2021/03/20 00:26:08;;;;;;;5.30;2.80;;;-0.20;99.90;;;;;;5055811;28;20250;-47
2021/03/20 00:28:35;;;;;;;4.45;2.15;;;-0.70;99.90;;;;;;5054323;28;20204;-48
2021/03/20 00:31:03;;;;;;;6.47;2.38;;;0.00;99.90;;;;;;5053605;28;20556;-48
2021/03/20 00:33:30;;;;;;;2.75;2.00;;;-0.10;99.90;;;;;;5053315;28;20196;-48
2021/03/20 00:35:58;;;;;;;4.15;2.20;;;-0.20;99.90;;;;;;5053844;28;20243;-48
2021/03/20 00:38:26;;;;;;;3.97;2.47;;;-0.20;99.90;;;;;;5053752;28;20367;-49
2021/03/20 00:40:53;;;;;;;7.60;2.75;;;-0.10;99.90;;;;;;5053556;28;20210;-49
2021/03/20 00:43:20;;;;;;;5.45;2.40;;;0.10;99.90;;;;;;5053272;28;20672;-48
2021/03/20 00:45:46;;;;;;;6.45;2.30;;;-0.10;99.90;;;;;;5053958;28;20220;-48
2021/03/20 00:48:15;;;;;;;5.65;2.28;;;0.00;99.90;;;;;;5055040;28;20215;-48
2021/03/20 00:50:42;;;;;;;8.40;2.90;;;-0.10;99.90;;;;;;5054793;28;20239;-48
2021/03/20 00:53:15;;;;;;;6.82;2.83;;;0.10;99.90;;;;;;5036784;28;20196;-47
2021/03/20 00:55:41;;;;;;;5.15;2.65;;;0.10;99.90;;;;;;5054656;28;20708;-47
2021/03/20 00:58:22;;;;;;;4.10;2.20;;;0.20;99.90;;;;;;5054937;28;20288;-48
2021/03/20 01:00:50;;;;;;;5.45;1.98;;;0.20;99.90;;;;;;5055134;28;20192;-48
2021/03/20 01:03:17;;;;;;;6.85;2.60;;;0.20;99.90;;;;;;5035401;28;20299;-49
2021/03/20 01:05:44;;;;;;;6.70;2.53;;;0.20;99.90;;;;;;5052749;28;20281;-49
2021/03/20 01:08:10;;;;;;;6.80;2.15;;;0.10;99.90;;;;;;5053322;28;20653;-49
2021/03/20 01:10:38;;;;;;;7.43;2.20;;;0.10;99.90;;;;;;5053093;28;20681;-47
2021/03/20 01:13:04;;;;;;;4.35;2.55;;;0.30;99.90;;;;;;5053838;28;20207;-47
2021/03/20 01:15:31;;;;;;;3.22;2.28;;;0.00;99.90;;;;;;5052933;28;20209;-48
2021/03/20 01:17:58;;;;;;;3.90;2.38;;;-0.10;99.90;;;;;;5053338;28;20200;-48
2021/03/20 01:20:24;;;;;;;4.18;2.40;;;0.30;99.90;;;;;;5052654;28;20216;-48
2021/03/20 01:22:51;;;;;;;3.30;2.00;;;-0.10;99.90;;;;;;5034738;28;20256;-48
2021/03/20 01:25:18;;;;;;;5.40;2.25;;;0.00;99.90;;;;;;5052960;28;20281;-47
2021/03/20 01:27:44;;;;;;;4.05;2.13;;;0.10;99.90;;;;;;5052581;28;20193;-49
2021/03/20 01:30:17;;;;;;;2.33;1.85;;;0.00;99.90;;;;;;5052873;28;20665;-48
2021/03/20 01:32:44;;;;;;;3.03;1.95;;;0.20;99.90;;;;;;5052356;28;20189;-47
2021/03/20 01:35:11;;;;;;;8.38;2.22;;;0.20;99.90;;;;;;5052581;28;20228;-47
2021/03/20 01:37:37;;;;;;;6.55;2.72;;;0.30;99.90;;;;;;5052400;28;20250;-48
2021/03/20 01:40:06;;;;;;;6.68;2.35;;;-0.10;99.90;;;;;;5052143;28;20208;-48
2021/03/20 01:42:33;;;;;;;4.65;2.53;;;0.00;99.90;;;;;;5051941;28;20185;-48
2021/03/20 01:45:22;;;;;;;3.65;2.53;;;0.10;99.90;;;;;;5052235;28;20696;-47
2021/03/20 01:47:56;;;;;;;4.68;2.20;;;0.10;99.90;;;;;;5046993;28;20244;-47
2021/03/20 01:50:28;;;;;;;4.85;2.35;;;0.10;99.90;;;;;;5033973;28;20257;-49
2021/03/20 01:52:57;;;;;;;3.38;1.95;;;0.20;99.90;;;;;;5051925;28;20196;-47
2021/03/20 01:55:27;;;;;;;2.45;2.08;;;0.10;99.90;;;;;;5052151;28;20337;-48
2021/03/20 01:57:57;;;;;;;6.70;2.53;;;0.10;99.90;;;;;;5052092;28;20240;-47
2021/03/20 02:00:29;;;;;;;6.32;2.28;;;0.10;99.90;;;;;;5051998;28;20196;-48
2021/03/20 02:02:56;;;;;;;4.40;1.88;;;0.20;99.90;;;;;;5051507;28;20266;-48
2021/03/20 02:05:26;;;;;;;4.55;2.53;;;0.20;99.90;;;;;;5051624;28;20260;-49
2021/03/20 02:07:53;;;;;;;2.83;2.17;;;0.10;99.90;;;;;;5017599;28;20199;-47
2021/03/20 02:10:20;;;;;;;6.40;2.67;;;0.30;99.90;;;;;;5051529;28;20292;-48
2021/03/20 02:12:53;;;;;;;4.65;1.85;;;0.30;99.90;;;;;;5051548;28;20697;-48
2021/03/20 02:15:24;;;;;;;6.43;2.28;;;0.20;99.90;;;;;;5051306;28;20239;-48
2021/03/20 02:17:56;;;;;;;5.25;2.20;;;0.10;99.90;;;;;;5051581;28;20259;-47
2021/03/20 02:20:53;;;;;;;7.93;2.30;;;0.20;99.90;;;;;;5051780;28;20199;-48
2021/03/20 02:24:05;;;;;;;5.90;2.55;;;0.40;99.90;;;;;;5051204;28;20203;-47
2021/03/20 02:27:00;;;;;;;3.60;2.20;;;0.30;99.90;;;;;;5051417;28;20216;-48
2021/03/20 02:30:06;;;;;;;3.17;2.10;;;0.20;99.90;;;;;;5051696;28;20220;-49
2021/03/20 02:32:52;;;;;;;3.70;2.33;;;0.30;99.90;;;;;;5051392;28;20199;-46
2021/03/20 02:35:28;;;;;;;3.55;2.20;;;0.40;99.90;;;;;;5049438;28;20224;-47
2021/03/20 02:38:02;;;;;;;7.30;2.20;;;0.20;99.90;;;;;;5051564;28;20687;-49
2021/03/20 02:40:32;;;;;;;3.78;2.30;;;0.30;99.90;;;;;;5051648;28;20202;-47
2021/03/20 02:43:04;;;;;;;4.40;2.40;;;0.30;99.90;;;;;;5051055;28;20213;-48
2021/03/20 02:45:35;;;;;;;5.03;2.15;;;0.20;99.90;;;;;;5051416;28;20311;-48
2021/03/20 02:48:10;;;;;;;4.97;2.10;;;0.30;99.90;;;;;;5051443;28;20199;-48
2021/03/20 02:50:46;;;;;;;5.63;2.28;;;0.20;99.90;;;;;;5051149;28;20223;-48
2021/03/20 02:53:18;;;;;;;2.97;1.90;;;0.20;99.90;;;;;;5051133;28;20575;-49
2021/03/20 02:55:48;;;;;;;2.83;1.90;;;0.30;99.90;;;;;;5051376;28;20238;-48
2021/03/20 02:58:20;;;;;;;6.25;1.98;;;0.30;99.90;;;;;;5051352;28;20193;-47
2021/03/20 03:00:51;;;;;;;4.53;1.95;;;0.40;99.90;;;;;;5051324;28;20192;-48
2021/03/20 03:03:20;;;;;;;4.88;2.05;;;0.30;99.90;;;;;;5050909;28;20253;-47
2021/03/20 03:05:50;;;;;;;2.50;2.30;;;0.10;99.90;;;;;;5051359;28;20834;-47
2021/03/20 03:08:21;;;;;;;5.55;1.90;;;0.10;99.90;;;;;;5051068;28;20299;-46
2021/03/20 03:10:52;;;;;;;3.05;2.20;;;0.20;99.90;;;;;;5051801;28;20224;-46
2021/03/20 03:13:22;;;;;;;7.15;2.15;;;0.30;99.90;;;;;;5051071;28;20211;-47
2021/03/20 03:15:53;;;;;;;2.50;2.25;;;0.10;99.90;;;;;;5051343;28;20219;-46
2021/03/20 03:18:27;;;;;;;3.95;1.92;;;0.10;99.90;;;;;;5051391;28;20316;-45
2021/03/20 03:20:58;;;;;;;3.70;2.40;;;0.20;99.90;;;;;;5051546;28;20207;-46
2021/03/20 03:23:28;;;;;;;4.72;1.90;;;-0.50;99.90;;;;;;5050753;28;20602;-47
2021/03/20 03:26:00;;;;;;;2.70;2.00;;;-0.40;99.90;;;;;;5051334;28;20571;-46
2021/03/20 03:28:29;;;;;;;3.42;2.35;;;0.00;99.90;;;;;;5052956;28;20192;-48
2021/03/20 03:30:56;;;;;;;5.43;2.65;;;0.10;99.90;;;;;;5055767;28;20241;-47
2021/03/20 03:33:27;;;;;;;5.63;2.10;;;-0.10;99.90;;;;;;5055670;28;20227;-45
2021/03/20 03:35:57;;;;;;;3.63;2.38;;;0.30;99.90;;;;;;5055126;28;20213;-47
2021/03/20 03:38:35;;;;;;;3.30;2.10;;;0.10;99.90;;;;;;5055033;28;20188;-47
2021/03/20 03:41:07;;;;;;;3.30;2.17;;;-0.10;99.90;;;;;;5055097;28;20681;-47
2021/03/20 03:43:33;;;;;;;3.63;2.35;;;0.20;99.90;;;;;;5053562;28;20199;-46
2021/03/20 03:46:00;;;;;;;3.22;1.98;;;0.30;99.90;;;;;;5055555;28;20265;-46
2021/03/20 03:48:28;;;;;;;2.95;1.80;;;0.10;99.90;;;;;;5057934;28;20217;-46
2021/03/20 03:50:55;;;;;;;4.72;2.25;;;0.20;99.90;;;;;;5057460;28;20213;-46
2021/03/20 03:53:26;;;;;;;3.20;1.90;;;0.40;99.90;;;;;;5056472;28;20695;-46
2021/03/20 03:55:57;;;;;;;3.38;1.70;;;0.20;99.90;;;;;;5039009;28;20241;-46
2021/03/20 03:58:43;;;;;;;4.45;2.40;;;0.40;99.90;;;;;;5057073;28;20214;-47
2021/03/20 04:01:15;;;;;;;6.35;2.60;;;0.40;99.90;;;;;;5054547;28;20200;-47
2021/03/20 04:03:59;;;;;;;3.33;2.20;;;0.20;99.90;;;;;;5037778;28;20200;-47
2021/03/20 04:06:54;;;;;;;4.07;1.80;;;0.10;99.90;;;;;;5055003;28;20228;-46
2021/03/20 04:09:32;;;;;;;5.13;2.28;;;0.70;99.90;;;;;;5051702;28;20212;-46
2021/03/20 04:12:03;;;;;;;3.42;2.42;;;0.30;99.90;;;;;;5054489;28;20217;-46
2021/03/20 04:14:38;;;;;;;6.65;2.25;;;0.20;99.90;;;;;;5054279;28;20534;-47
2021/03/20 04:17:11;;;;;;;4.97;2.55;;;0.40;99.90;;;;;;5053797;28;20202;-47
2021/03/20 04:19:52;;;;;;;4.30;2.85;;;0.10;99.90;;;;;;5054204;28;20201;-47
2021/03/20 04:22:25;;;;;;;4.55;2.60;;;0.20;99.90;;;;;;5053647;28;20570;-46
2021/03/20 04:24:58;;;;;;;5.72;2.60;;;0.20;99.90;;;;;;5053972;28;20273;-47
2021/03/20 04:27:30;;;;;;;5.45;2.40;;;0.50;99.90;;;;;;5054098;28;20513;-47
2021/03/20 04:30:03;;;;;;;6.95;2.70;;;0.10;99.90;;;;;;5054066;28;20206;-47
2021/03/20 04:32:34;;;;;;;3.70;2.20;;;0.40;99.90;;;;;;5035473;28;20229;-46
2021/03/20 04:35:06;;;;;;;5.20;2.15;;;0.30;99.90;;;;;;5053612;28;20220;-46
2021/03/20 04:37:35;;;;;;;3.42;2.70;;;0.20;99.90;;;;;;5053479;28;20188;-47
2021/03/20 04:40:06;;;;;;;4.60;2.53;;;0.10;99.90;;;;;;5053876;28;20223;-47
2021/03/20 04:42:35;;;;;;;4.45;3.03;;;0.30;99.90;;;;;;5054004;28;20201;-46
2021/03/20 04:45:04;;;;;;;3.15;2.40;;;0.30;99.90;;;;;;5053906;28;20217;-46
2021/03/20 04:47:34;;;;;;;3.90;2.38;;;0.30;99.90;;;;;;5053862;28;20208;-48
2021/03/20 04:50:06;;;;;;;3.60;2.30;;;0.30;99.90;;;;;;5054347;28;20260;-47
2021/03/20 04:52:37;;;;;;;4.00;2.50;;;0.30;99.90;;;;;;5055326;28;20216;-46
2021/03/20 04:55:06;;;;;;;4.78;2.40;;;0.30;99.90;;;;;;5055209;28;20217;-45
2021/03/20 04:57:37;;;;;;;6.40;2.42;;;0.30;99.90;;;;;;5054171;28;20189;-45
2021/03/20 05:00:12;;;;;;;6.32;2.42;;;0.40;99.90;;;;;;5035783;28;20738;-46
2021/03/20 05:02:42;;;;;;;6.45;3.00;;;0.30;99.90;;;;;;5053675;28;20517;-45
2021/03/20 05:05:22;;;;;;;6.57;2.90;;;0.30;99.90;;;;;;5053586;28;20224;-47
2021/03/20 05:07:49;;;;;;;4.25;2.47;;;0.30;99.90;;;;;;5053237;28;20230;-46
2021/03/20 05:10:24;;;;;;;4.35;2.45;;;0.30;99.90;;;;;;5053890;28;20205;-46
2021/03/20 05:12:50;;;;;;;3.30;2.50;;;0.10;99.90;;;;;;5053857;28;20192;-47
2021/03/20 05:15:25;;;;;;;3.97;2.20;;;0.40;99.90;;;;;;5053295;28;20258;-46
2021/03/20 05:17:51;;;;;;;2.63;1.80;;;0.40;99.90;;;;;;5053127;28;20210;-45
2021/03/20 05:20:18;;;;;;;6.13;2.83;;;0.10;99.90;;;;;;5052791;28;20228;-47
2021/03/20 05:22:44;;;;;;;3.05;2.65;;;0.30;99.90;;;;;;5052383;28;20224;-47
2021/03/20 05:25:14;;;;;;;5.40;2.20;;;0.30;99.90;;;;;;5052535;28;20217;-47
2021/03/20 05:27:40;;;;;;;3.85;2.90;;;0.50;99.90;;;;;;5052647;28;20197;-46
2021/03/20 05:30:07;;;;;;;7.78;2.53;;;0.30;99.90;;;;;;5034789;28;20661;-48
2021/03/20 05:32:35;;;;;;;4.07;2.00;;;0.50;99.90;;;;;;5034539;28;20698;-47
2021/03/20 05:35:04;;;;;;;3.10;1.92;;;0.10;99.90;;;;;;5052089;28;20246;-47
2021/03/20 05:37:35;;;;;;;6.28;2.40;;;0.40;99.90;;;;;;5052411;28;20224;-47
2021/03/20 05:40:03;;;;;;;4.00;1.98;;;0.40;99.90;;;;;;5034463;28;20200;-47
2021/03/20 05:42:39;;;;;;;5.50;2.70;;;0.50;99.90;;;;;;5052027;28;20254;-46
2021/03/20 05:45:17;;;;;;;2.45;1.75;;;0.50;99.90;;;;;;5052003;28;20217;-48
2021/03/20 05:47:59;;;;;;;3.15;2.30;;;0.30;99.90;;;;;;5052789;28;20236;-47
2021/03/20 05:50:41;;;;;;;5.53;2.55;;;0.50;99.90;;;;;;5052450;28;20239;-47
2021/03/20 05:53:33;;;;;;;4.90;2.20;;;0.40;99.90;;;;;;5052862;28;20196;-46
2021/03/20 05:56:04;;;;;;;6.03;2.60;;;0.70;99.90;;;;;;5052872;28;20266;-48
2021/03/20 05:58:52;;;;;;;9.30;2.35;;;0.50;99.90;;;;;;5053187;28;20202;-48
2021/03/20 06:01:29;;;;;;;5.72;2.70;;;0.10;99.90;;;;;;5053242;28;20303;-47
2021/03/20 06:04:15;;;;;;;5.28;2.67;;;0.60;99.90;;;;;;5052545;28;20218;-47
2021/03/20 06:06:51;;;;;;;4.10;2.20;;;0.60;99.90;;;;;;5052468;28;20328;-47
2021/03/20 06:09:30;;;;;;;4.45;2.38;;;0.80;99.90;;;;;;5053296;28;20188;-47
2021/03/20 06:12:14;;;;;;;5.07;2.28;;;0.20;99.90;;;;;;5035305;28;20219;-47
2021/03/20 06:15:00;;;;;;;3.55;2.63;;;1.10;99.90;;;;;;5052980;28;20200;-46
2021/03/20 06:17:40;;;;;;;4.20;2.30;;;0.90;99.90;;;;;;5052917;28;20192;-48
2021/03/20 06:20:21;;;;;;;9.45;2.85;;;1.20;99.90;;;;;;5052125;28;20200;-46
2021/03/20 06:23:27;;;;;;;3.10;2.40;;;1.00;99.90;;;;;;5051525;28;20193;-47
2021/03/20 06:26:00;;;;;;;4.70;2.50;;;1.20;99.90;;;;;;5033814;28;20231;-47
2021/03/20 06:28:33;;;;;;;5.15;2.20;;;1.20;99.90;;;;;;5051796;28;20208;-48
2021/03/20 06:31:06;;;;;;;4.63;2.40;;;1.00;99.90;;;;;;5051508;28;20208;-45
2021/03/20 06:33:38;;;;;;;9.02;3.20;;;1.00;99.90;;;;;;5051319;28;20871;-48
2021/03/20 06:36:08;;;;;;;3.60;2.10;;;1.10;99.90;;;;;;5051512;28;20214;-48
2021/03/20 06:38:40;;;;;;;3.92;2.20;;;1.20;99.90;;;;;;5051756;28;20204;-46
2021/03/20 06:41:17;;;;;;;5.22;2.55;;;1.30;99.90;;;;;;5051522;28;20194;-47
2021/03/20 06:43:52;;;;;;;10.25;2.42;;;1.00;99.90;;;;;;5050938;28;20660;-46
2021/03/20 06:46:21;;;;;;;6.35;2.30;;;1.50;99.90;;;;;;5051290;28;20630;-48
2021/03/20 06:48:48;;;;;;;8.57;2.83;;;1.30;99.90;;;;;;5051490;28;20202;-48
2021/03/20 06:51:14;;;;;;;9.98;2.80;;;1.20;99.90;;;;;;5051457;28;20586;-47
2021/03/20 06:53:46;;;;;;;5.53;2.63;;;1.70;99.90;;;;;;5051057;28;20192;-47
2021/03/20 06:56:15;;;;;;;5.22;2.40;;;1.40;99.90;;;;;;5051713;28;20213;-45
2021/03/20 06:58:42;;;;;;;4.55;2.58;;;1.40;99.90;;;;;;5051389;28;20603;-47
2021/03/20 07:01:35;;;;;;;5.32;2.85;;;1.70;99.90;;;;;;5051097;28;20278;-47
2021/03/20 07:04:21;;;;;;;4.32;2.25;;;1.40;99.90;;;;;;5054759;28;20197;-46
2021/03/20 07:07:01;;;;;;;4.68;2.28;;;1.70;99.90;;;;;;5055575;28;20220;-47
2021/03/20 07:09:27;;;;;;;6.15;2.53;;;1.80;99.90;;;;;;5055713;28;20196;-47
2021/03/20 07:12:08;;;;;;;8.77;3.20;;;1.40;99.90;;;;;;5055477;28;20262;-47
2021/03/20 07:14:39;;;;;;;3.83;2.10;;;1.40;99.90;;;;;;5056618;28;20200;-46
2021/03/20 07:17:08;;;;;;;6.82;2.65;;;1.50;99.90;;;;;;5057758;28;20199;-48
2021/03/20 07:19:34;;;;;;;4.43;2.38;;;1.50;99.90;;;;;;5057933;28;20200;-47
2021/03/20 07:22:06;;;;;;;4.45;2.20;;;1.50;99.90;;;;;;5056516;28;20656;-46
2021/03/20 07:24:35;;;;;;;5.53;2.85;;;2.20;99.90;;;;;;5055071;28;20253;-46
2021/03/20 07:27:06;;;;;;;5.40;2.30;;;1.80;99.60;;;;;;5055145;28;20196;-48
2021/03/20 07:29:45;;;;;;;5.70;3.13;;;2.00;99.80;;;;;;5054872;28;20196;-47
2021/03/20 07:32:15;;;;;;;5.20;2.90;;;2.00;99.70;;;;;;5036997;28;20249;-47
2021/03/20 07:34:42;;;;;;;4.90;2.92;;;1.70;98.90;;;;;;5054885;28;20192;-46
2021/03/20 07:37:14;;;;;;;5.47;3.97;;;2.00;98.70;;;;;;5038576;28;20211;-46
2021/03/20 07:39:45;;;;;;;4.18;2.33;;;1.70;98.00;;;;;;5058036;28;20329;-45
2021/03/20 07:42:28;;;;;;;5.95;2.40;;;1.90;98.00;;;;;;5057680;28;20200;-47
2021/03/20 07:44:58;;;;;;;6.88;3.05;;;2.20;97.50;;;;;;5057432;28;20220;-46
2021/03/20 07:47:26;;;;;;;5.10;2.70;;;2.30;97.00;;;;;;5038753;28;20208;-47
2021/03/20 07:50:24;;;;;;;5.57;2.28;;;2.20;96.60;;;;;;5056742;28;20204;-45
2021/03/20 07:53:04;;;;;;;5.72;2.90;;;2.20;96.00;;;;;;5055513;28;20234;-48
2021/03/20 07:55:36;;;;;;;6.53;2.75;;;2.10;96.00;;;;;;5055747;28;20557;-47
2021/03/20 07:58:04;;;;;;;3.38;2.38;;;2.30;95.60;;;;;;5037981;28;20203;-47
2021/03/20 08:00:33;;;;;;;3.20;1.98;;;2.10;94.60;;;;;;5056996;28;20207;-47
2021/03/20 08:03:05;;;;;;;3.78;2.00;;;2.20;94.90;;;;;;5056458;28;20188;-47
2021/03/20 08:05:35;;;;;;;4.95;2.60;;;2.30;94.60;;;;;;5055642;28;20342;-48
2021/03/20 08:08:20;;;;;;;3.85;2.05;;;2.30;94.20;;;;;;5055573;28;20200;-46
2021/03/20 08:10:48;;;;;;;5.20;2.20;;;2.50;93.90;;;;;;5055732;28;20231;-48
2021/03/20 08:13:41;;;;;;;3.95;2.35;;;2.90;94.10;;;;;;5055617;28;20609;-48
2021/03/20 08:16:07;;;;;;;6.82;1.98;;;2.60;93.40;;;;;;5056276;28;20211;-46
2021/03/20 08:18:36;;;;;;;4.60;2.30;;;2.90;93.30;;;;;;5037395;28;20645;-45
2021/03/20 08:21:23;;;;;;;4.05;1.75;;;3.20;92.40;;;;;;5055936;28;20234;-46
2021/03/20 08:24:07;;;;;;;3.88;2.35;;;3.00;92.50;;;;;;5055072;28;20196;-48
2021/03/20 08:26:43;;;;;;;4.63;2.03;;;3.00;91.80;;;;;;5053827;28;20269;-47
2021/03/20 08:29:22;;;;;;;5.10;2.17;;;3.10;90.80;;;;;;5054085;28;20377;-46
2021/03/20 08:32:00;;;;;;;3.30;1.80;;;3.10;90.70;;;;;;5053787;28;20211;-47
2021/03/20 08:34:34;;;;;;;3.17;2.00;;;3.00;91.10;;;;;;5053242;28;20222;-48
2021/03/20 08:37:28;;;;;;;6.65;2.38;;;3.50;91.10;;;;;;5053267;28;20200;-48
2021/03/20 08:40:09;;;;;;;3.65;2.05;;;3.40;91.10;;;;;;5054706;28;20231;-48
2021/03/20 08:42:50;;;;;;;6.22;2.10;;;3.40;90.80;;;;;;5055923;28;20184;-47
2021/03/20 08:45:21;;;;;;;5.35;2.50;;;3.70;90.10;;;;;;5055572;28;20215;-45
2021/03/20 08:48:17;;;;;;;1.90;1.42;;;3.30;86.60;;;;;;5054416;28;20269;-49
2021/03/20 08:50:55;;;;;;;2.20;1.40;;;3.40;84.60;;;;;;5053355;28;20192;-48
2021/03/20 08:53:29;;;;;;;3.80;1.40;;;3.60;85.10;;;;;;5053202;28;20203;-48
2021/03/20 08:56:22;;;;;;;4.40;1.95;;;3.70;83.00;;;;;;5053373;28;20536;-48
2021/03/20 08:58:54;;;;;;;3.78;1.95;;;3.60;81.80;;;;;;5053437;28;20546;-46
2021/03/20 09:01:41;;;;;;;5.35;2.00;;;3.80;81.20;;;;;;5053679;28;20263;-48
2021/03/20 09:04:13;;;;;;;2.70;1.60;;;4.20;80.50;;;;;;5053099;28;20208;-48
2021/03/20 09:06:42;;;;;;;4.93;2.10;;;4.10;81.50;;;;;;5053709;28;20219;-47
2021/03/20 09:09:17;;;;;;;5.93;3.03;;;4.10;80.60;;;;;;5035056;28;20231;-47
2021/03/20 09:11:51;;;;;;;4.10;2.03;;;4.50;77.90;;;;;;5053130;28;20204;-48
2021/03/20 09:14:22;;;;;;;7.95;2.13;;;4.40;78.10;;;;;;5052171;28;20192;-48
2021/03/20 09:16:54;;;;;;;3.38;2.15;;;4.20;77.50;;;;;;5052648;28;20273;-47
2021/03/20 09:19:26;;;;;;;6.88;2.13;;;4.30;78.20;;;;;;5052767;28;20257;-47
2021/03/20 09:21:57;;;;;;;4.40;2.08;;;4.60;80.00;;;;;;5052698;28;20263;-47
2021/03/20 09:24:25;;;;;;;5.30;2.22;;;4.20;78.90;;;;;;5053016;28;20192;-47
2021/03/20 09:26:54;;;;;;;7.35;2.33;;;4.30;78.80;;;;;;5051364;28;20216;-47
2021/03/20 09:29:23;;;;;;;5.35;2.47;;;4.50;80.80;;;;;;5053712;28;20200;-47
2021/03/20 09:32:15;;;;;;;4.70;2.40;;;4.00;79.80;;;;;;5052457;28;20499;-47
2021/03/20 09:34:48;;;;;;;4.63;2.17;;;4.70;78.30;;;;;;5034297;28;20208;-48
2021/03/20 09:37:46;;;;;;;5.15;1.90;;;4.50;75.20;;;;;;5052320;28;20249;-48
2021/03/20 09:40:16;;;;;;;3.65;2.22;;;4.70;74.30;;;;;;5052152;28;20568;-47
2021/03/20 09:42:43;;;;;;;2.67;1.95;;;4.80;75.50;;;;;;5052125;28;20185;-47
2021/03/20 09:45:28;;;;;;;8.43;2.25;;;4.90;74.80;;;;;;5052870;28;20220;-47
2021/03/20 09:47:56;;;;;;;7.85;2.38;;;5.10;73.90;;;;;;5052461;28;20220;-47
2021/03/20 09:50:34;;;;;;;5.70;2.33;;;5.10;72.00;;;;;;5052495;28;20218;-47
2021/03/20 09:53:32;;;;;;;3.60;1.65;;;5.10;69.10;;;;;;5051513;28;20230;-47
2021/03/20 09:56:26;;;;;;;3.38;2.00;;;4.80;69.10;;;;;;5051723;28;20660;-47
2021/03/20 09:58:52;;;;;;;4.85;2.10;;;4.90;69.30;;;;;;5034134;28;20204;-47
2021/03/20 10:01:44;;;;;;;4.57;1.80;;;4.80;70.60;;;;;;5051726;28;20196;-48
2021/03/20 10:04:31;;;;;;;2.70;1.60;;;4.80;69.80;;;;;;5051315;28;20196;-48
2021/03/20 10:07:30;;;;;;;6.55;1.70;;;5.10;69.00;;;;;;5033834;28;20232;-47
2021/03/20 10:10:00;;;;;;;6.63;1.95;;;5.20;67.80;;;;;;5051887;28;20265;-48
2021/03/20 10:12:36;;;;;;;5.60;2.10;;;5.40;68.70;;;;;;5051845;28;20752;-48
2021/03/20 10:15:23;;;;;;;3.20;2.20;;;5.50;67.00;;;;;;5051960;28;20222;-48
2021/03/20 10:17:58;;;;;;;6.45;3.08;;;5.30;64.90;;;;;;5052310;28;20626;-48
2021/03/20 10:20:37;;;;;;;4.25;2.20;;;5.50;66.60;;;;;;5052205;28;20497;-47
2021/03/20 10:23:12;;;;;;;2.10;1.70;;;5.30;66.40;;;;;;5051672;28;20202;-48
2021/03/20 10:25:43;;;;;;;5.78;2.08;;;5.40;66.30;;;;;;5051914;28;20222;-47
2021/03/20 10:28:10;;;;;;;3.65;1.80;;;5.70;66.80;;;;;;5051790;28;20590;-47
2021/03/20 10:30:38;;;;;;;4.25;1.90;;;5.50;64.50;;;;;;5052250;28;20246;-46
2021/03/20 10:33:06;;;;;;;6.15;1.77;;;5.30;64.40;;;;;;5051177;28;20303;-48
2021/03/20 10:35:37;;;;;;;3.30;1.48;;;5.30;63.70;;;;;;5051559;28;20212;-46
2021/03/20 10:38:20;;;;;;;3.53;2.10;;;5.20;63.90;;;;;;5051146;28;20246;-48
2021/03/20 10:40:57;;;;;;;4.25;1.55;;;5.20;63.90;;;;;;5051553;28;20625;-47
2021/03/20 10:43:24;;;;;;;3.80;2.70;;;5.20;64.00;;;;;;5051075;28;20192;-47
2021/03/20 10:45:51;;;;;;;5.28;1.92;;;5.50;64.20;;;;;;5051525;28;20592;-48
2021/03/20 10:48:22;;;;;;;3.60;2.17;;;5.40;63.30;;;;;;5051545;28;20686;-48
2021/03/20 10:50:55;;;;;;;8.68;2.30;;;5.60;63.20;;;;;;5051445;28;20195;-48
2021/03/20 10:53:26;;;;;;;6.13;2.00;;;5.50;61.10;;;;;;5033002;28;20605;-49
2021/03/20 10:55:55;;;;;;;4.80;2.13;;;5.10;62.00;;;;;;5051020;28;20215;-47
2021/03/20 10:58:28;;;;;;;4.43;1.70;;;5.60;60.30;;;;;;5051345;28;20200;-47
2021/03/20 11:00:54;;;;;;;2.88;1.40;;;5.60;61.10;;;;;;5033005;28;20212;-48
2021/03/20 11:03:33;;;;;;;2.67;1.58;;;5.80;60.80;;;;;;5050849;28;20603;-47
2021/03/20 11:06:10;;;;;;;4.00;1.60;;;5.60;59.20;;;;;;5051076;28;20223;-48
2021/03/20 11:08:37;;;;;;;2.72;1.60;;;5.70;60.10;;;;;;5051416;28;20680;-47
2021/03/20 11:11:10;;;;;;;3.20;1.80;;;5.50;59.50;;;;;;5051128;28;20196;-48
2021/03/20 11:13:39;;;;;;;3.67;1.60;;;5.50;58.50;;;;;;5051239;28;20726;-48
2021/03/20 11:16:11;;;;;;;3.90;2.13;;;5.10;57.60;;;;;;5051182;28;20584;-47
2021/03/20 11:18:42;;;;;;;4.47;2.10;;;5.50;58.40;;;;;;5049708;28;20196;-48
2021/03/20 11:21:24;;;;;;;3.03;1.88;;;4.80;58.10;;;;;;5050871;28;20195;-47
2021/03/20 11:23:56;;;;;;;3.50;2.47;;;5.20;58.80;;;;;;5048036;28;20205;-47
2021/03/20 11:26:42;;;;;;;5.22;2.40;;;5.40;58.60;;;;;;5032001;28;20239;-47
2021/03/20 11:29:13;;;;;;;3.28;1.90;;;5.30;58.20;;;;;;5047001;28;20677;-48
2021/03/20 11:31:52;;;;;;;2.30;1.80;;;5.10;57.50;;;;;;5051427;28;20785;-47
2021/03/20 11:34:24;;;;;;;4.25;2.00;;;5.50;57.00;;;;;;5051208;28;20207;-47
2021/03/20 11:36:52;;;;;;;6.68;2.10;;;5.50;57.90;;;;;;5051187;28;20227;-46
2021/03/20 11:39:21;;;;;;;5.50;2.55;;;5.40;58.60;;;;;;5051977;28;20258;-47
2021/03/20 11:41:56;;;;;;;3.58;2.50;;;5.50;59.20;;;;;;5051949;28;20226;-47
2021/03/20 11:44:24;;;;;;;7.53;2.20;;;5.20;58.30;;;;;;5051333;28;20195;-47
2021/03/20 11:46:53;;;;;;;5.10;2.10;;;5.80;57.90;;;;;;5051298;28;20613;-47
2021/03/20 11:49:25;;;;;;;7.05;2.47;;;5.90;58.60;;;;;;5053074;28;20208;-48
2021/03/20 11:51:53;;;;;;;4.40;2.40;;;6.00;58.20;;;;;;5054732;28;20254;-48
2021/03/20 11:54:28;;;;;;;6.72;2.58;;;6.10;57.90;;;;;;5054237;28;20985;-49
2021/03/20 11:56:59;;;;;;;4.80;2.30;;;6.10;56.90;;;;;;5055108;28;20222;-47
2021/03/20 11:59:38;;;;;;;7.53;2.70;;;6.20;56.30;;;;;;5054849;28;20216;-48
2021/03/20 12:02:06;;;;;;;5.70;1.70;;;6.10;57.20;;;;;;5054922;28;20277;-48
2021/03/20 12:04:33;;;;;;;7.47;2.60;;;6.10;57.70;;;;;;5055079;28;20525;-48
2021/03/20 12:07:23;;;;;;;6.57;2.13;;;6.00;56.00;;;;;;5054067;28;21016;-47
2021/03/20 12:09:51;;;;;;;4.50;2.10;;;5.90;55.60;;;;;;5054501;28;20204;-48
2021/03/20 12:12:18;;;;;;;4.47;2.40;;;6.00;55.80;;;;;;5053658;28;20224;-47
2021/03/20 12:14:46;;;;;;;2.53;2.10;;;6.00;56.90;;;;;;5053457;28;20204;-47
2021/03/20 12:17:19;;;;;;;4.70;2.50;;;5.90;56.70;;;;;;5035356;28;20210;-47
2021/03/20 12:20:02;;;;;;;4.83;2.30;;;6.00;56.90;;;;;;5035869;28;20454;-48
2021/03/20 12:22:42;;;;;;;8.03;3.47;;;5.90;57.20;;;;;;5016135;28;20443;-49
2021/03/20 12:25:22;;;;;;;5.77;3.13;;;6.00;56.80;;;;;;5035008;28;20449;-47
2021/03/20 12:27:49;;;;;;;5.77;2.90;;;6.10;56.80;;;;;;5043143;28;20438;-48
2021/03/20 12:30:26;;;;;;;6.10;2.80;;;6.00;56.20;;;;;;5054685;28;20445;-47
2021/03/20 12:32:54;;;;;;;5.38;2.30;;;6.00;56.40;;;;;;5054048;28;20521;-48
2021/03/20 12:35:33;;;;;;;5.37;2.47;;;6.40;56.90;;;;;;5053886;28;20270;-46
2021/03/20 12:38:16;;;;;;;3.73;1.90;;;6.20;55.90;;;;;;5053724;28;20426;-46
2021/03/20 12:40:48;;;;;;;5.00;2.30;;;6.20;56.10;;;;;;5054128;28;20439;-48
2021/03/20 12:43:22;;;;;;;6.63;2.33;;;6.10;56.10;;;;;;5053028;28;20431;-48
2021/03/20 12:45:48;;;;;;;4.87;2.60;;;5.70;56.40;;;;;;5053317;28;20989;-48
2021/03/20 12:48:17;;;;;;;3.83;2.30;;;6.20;57.10;;;;;;5053434;28;20560;-49
2021/03/20 12:50:43;;;;;;;4.80;2.33;;;6.20;57.30;;;;;;5054299;28;20461;-46
2021/03/20 12:53:11;;;;;;;6.80;2.37;;;6.20;57.80;;;;;;5054065;28;20494;-48
2021/03/20 12:55:37;;;;;;;7.10;3.07;;;6.20;57.80;;;;;;5054073;28;21034;-48
2021/03/20 12:58:04;;;;;;;6.00;2.50;;;6.40;57.90;;;;;;5053575;28;20438;-49
2021/03/20 13:00:32;;;;;;;6.93;3.03;;;6.20;56.50;;;;;;5053485;28;20789;-47
2021/03/20 13:03:00;;;;;;;5.13;2.50;;;6.20;56.50;;;;;;5053711;28;21005;-45
2021/03/20 13:05:30;;;;;;;8.13;3.30;;;6.40;56.40;;;;;;5036762;28;20487;-47
2021/03/20 13:07:57;;;;;;;4.60;2.50;;;6.50;56.80;;;;;;5054643;28;20451;-47
2021/03/20 13:10:25;;;;;;;5.00;2.97;;;6.70;57.30;;;;;;5055059;28;20949;-48
2021/03/20 13:12:52;;;;;;;8.63;3.00;;;6.40;57.40;;;;;;5035442;28;20566;-47
2021/03/20 13:15:21;;;;;;;4.47;2.50;;;6.50;57.40;;;;;;5053544;28;20455;-47
2021/03/20 13:17:48;;;;;;;4.70;2.63;;;6.80;57.10;;;;;;5053352;28;20455;-45
2021/03/20 13:20:16;;;;;;;4.70;2.33;;;6.80;56.90;;;;;;5052999;28;20426;-48
2021/03/20 13:22:43;;;;;;;5.13;2.07;;;6.80;57.30;;;;;;5051887;28;20431;-48
2021/03/20 13:25:20;;;;;;;5.97;2.63;;;6.80;56.60;;;;;;5052075;28;20482;-47
2021/03/20 13:27:47;;;;;;;2.93;2.13;;;7.30;57.20;;;;;;5052140;28;20445;-46